sensor_id;sensor_type;location;lat;lon;timestamp;pressure;altitude;pressure_sealevel;temperature;humidity
65013;BME280;51715;39.432;-77.518;2022-07-10T00:00:49;99737.36;;;27.05;46.07
65013;BME280;51715;39.432;-77.518;2022-07-10T00:03:18;99734.16;;;26.66;46.15
65013;BME280;51715;39.432;-77.518;2022-07-10T00:05:46;99734.53;;;26.94;46.24
65013;BME280;51715;39.432;-77.518;2022-07-10T00:08:13;99730.34;;;26.95;45.89
65013;BME280;51715;39.432;-77.518;2022-07-10T00:10:42;99730.51;;;26.96;45.75
65013;BME280;51715;39.432;-77.518;2022-07-10T00:13:10;99727.82;;;27.24;45.43
65013;BME280;51715;39.432;-77.518;2022-07-10T00:15:39;99729.46;;;27.08;45.18
65013;BME280;51715;39.432;-77.518;2022-07-10T00:18:07;99726.47;;;26.67;45.48
65013;BME280;51715;39.432;-77.518;2022-07-10T00:20:36;99723.98;;;26.84;45.76
65013;BME280;51715;39.432;-77.518;2022-07-10T00:23:05;99717.84;;;26.75;45.37
65013;BME280;51715;39.432;-77.518;2022-07-10T00:25:33;99710.29;;;26.79;45.31
65013;BME280;51715;39.432;-77.518;2022-07-10T00:28:02;99713.70;;;26.48;45.96
65013;BME280;51715;39.432;-77.518;2022-07-10T00:30:31;99711.02;;;26.38;45.99
65013;BME280;51715;39.432;-77.518;2022-07-10T00:33:00;99709.99;;;26.51;45.85
65013;BME280;51715;39.432;-77.518;2022-07-10T00:35:28;99714.62;;;26.51;45.33
65013;BME280;51715;39.432;-77.518;2022-07-10T00:37:57;99721.41;;;26.54;45.09
65013;BME280;51715;39.432;-77.518;2022-07-10T00:40:26;99721.86;;;26.60;45.34
65013;BME280;51715;39.432;-77.518;2022-07-10T00:42:55;99715.60;;;26.50;45.63
65013;BME280;51715;39.432;-77.518;2022-07-10T00:45:25;99715.85;;;26.15;45.89
65013;BME280;51715;39.432;-77.518;2022-07-10T00:47:53;99715.73;;;26.49;46.12
65013;BME280;51715;39.432;-77.518;2022-07-10T00:50:22;99725.41;;;26.45;46.27
65013;BME280;51715;39.432;-77.518;2022-07-10T00:52:50;99732.10;;;26.82;46.08
65013;BME280;51715;39.432;-77.518;2022-07-10T00:55:18;99734.11;;;26.70;46.03
65013;BME280;51715;39.432;-77.518;2022-07-10T00:57:48;99739.39;;;26.76;45.71
65013;BME280;51715;39.432;-77.518;2022-07-10T01:00:18;99742.14;;;26.61;45.58
65013;BME280;51715;39.432;-77.518;2022-07-10T01:02:47;99742.71;;;26.80;45.47
65013;BME280;51715;39.432;-77.518;2022-07-10T01:05:16;99743.94;;;26.51;45.76
65013;BME280;51715;39.432;-77.518;2022-07-10T01:07:45;99739.71;;;26.56;45.73
65013;BME280;51715;39.432;-77.518;2022-07-10T01:10:13;99739.44;;;26.37;45.93
65013;BME280;51715;39.432;-77.518;2022-07-10T01:12:42;99737.07;;;26.12;45.91
65013;BME280;51715;39.432;-77.518;2022-07-10T01:15:11;99736.40;;;26.39;45.80
65013;BME280;51715;39.432;-77.518;2022-07-10T01:17:39;99740.58;;;26.25;46.11
65013;BME280;51715;39.432;-77.518;2022-07-10T01:20:08;99745.91;;;26.39;45.98
65013;BME280;51715;39.432;-77.518;2022-07-10T01:22:39;99743.31;;;26.47;45.73
65013;BME280;51715;39.432;-77.518;2022-07-10T01:25:08;99736.33;;;26.63;45.44
65013;BME280;51715;39.432;-77.518;2022-07-10T01:27:37;99731.37;;;26.28;45.18
65013;BME280;51715;39.432;-77.518;2022-07-10T01:30:08;99732.05;;;26.74;45.27
65013;BME280;51715;39.432;-77.518;2022-07-10T01:32:38;99730.65;;;26.50;45.34
65013;BME280;51715;39.432;-77.518;2022-07-10T01:35:08;99733.18;;;26.53;45.59
65013;BME280;51715;39.432;-77.518;2022-07-10T01:37:37;99735.32;;;26.30;45.54
65013;BME280;51715;39.432;-77.518;2022-07-10T01:40:07;99738.84;;;26.80;45.21
65013;BME280;51715;39.432;-77.518;2022-07-10T01:42:35;99740.22;;;26.15;45.20
65013;BME280;51715;39.432;-77.518;2022-07-10T01:45:05;99745.80;;;26.47;45.50
65013;BME280;51715;39.432;-77.518;2022-07-10T01:47:33;99748.88;;;26.27;45.45
65013;BME280;51715;39.432;-77.518;2022-07-10T01:50:01;99746.54;;;26.20;45.39
65013;BME280;51715;39.432;-77.518;2022-07-10T01:52:30;99745.66;;;26.38;45.78
65013;BME280;51715;39.432;-77.518;2022-07-10T01:54:58;99746.82;;;26.29;45.92
65013;BME280;51715;39.432;-77.518;2022-07-10T01:57:26;99752.15;;;26.61;45.93
65013;BME280;51715;39.432;-77.518;2022-07-10T01:59:55;99758.84;;;26.43;45.80
65013;BME280;51715;39.432;-77.518;2022-07-10T02:02:24;99764.42;;;26.36;45.65
65013;BME280;51715;39.432;-77.518;2022-07-10T02:04:53;99768.35;;;26.05;46.01
65013;BME280;51715;39.432;-77.518;2022-07-10T02:07:22;99772.42;;;25.94;46.21
65013;BME280;51715;39.432;-77.518;2022-07-10T02:09:50;99767.15;;;25.76;46.52
65013;BME280;51715;39.432;-77.518;2022-07-10T02:12:19;99767.40;;;25.89;46.36
65013;BME280;51715;39.432;-77.518;2022-07-10T02:14:48;99774.29;;;26.19;46.18
65013;BME280;51715;39.432;-77.518;2022-07-10T02:17:17;99788.39;;;25.94;46.58
65013;BME280;51715;39.432;-77.518;2022-07-10T02:19:46;99784.74;;;25.42;47.68
65013;BME280;51715;39.432;-77.518;2022-07-10T02:22:14;99788.53;;;25.59;47.47
65013;BME280;51715;39.432;-77.518;2022-07-10T02:24:43;99787.20;;;25.32;47.63
65013;BME280;51715;39.432;-77.518;2022-07-10T02:27:10;99785.65;;;25.33;47.17
65013;BME280;51715;39.432;-77.518;2022-07-10T02:29:40;99788.18;;;25.68;46.99
65013;BME280;51715;39.432;-77.518;2022-07-10T02:32:08;99789.42;;;25.34;46.97
65013;BME280;51715;39.432;-77.518;2022-07-10T02:34:36;99792.39;;;25.46;46.79
65013;BME280;51715;39.432;-77.518;2022-07-10T02:37:06;99797.08;;;25.56;46.90
65013;BME280;51715;39.432;-77.518;2022-07-10T02:39:35;99802.05;;;26.08;46.35
65013;BME280;51715;39.432;-77.518;2022-07-10T02:42:04;99801.15;;;25.95;46.42
65013;BME280;51715;39.432;-77.518;2022-07-10T02:44:34;99803.10;;;26.09;46.02
65013;BME280;51715;39.432;-77.518;2022-07-10T02:47:05;99802.15;;;26.23;45.62
65013;BME280;51715;39.432;-77.518;2022-07-10T02:49:34;99805.71;;;26.22;45.78
65013;BME280;51715;39.432;-77.518;2022-07-10T02:52:03;99806.67;;;26.12;45.95
65013;BME280;51715;39.432;-77.518;2022-07-10T02:54:32;99806.30;;;25.91;45.80
65013;BME280;51715;39.432;-77.518;2022-07-10T02:57:00;99803.62;;;26.16;45.61
65013;BME280;51715;39.432;-77.518;2022-07-10T02:59:29;99801.30;;;25.89;45.66
65013;BME280;51715;39.432;-77.518;2022-07-10T03:01:58;99804.00;;;25.75;45.93
65013;BME280;51715;39.432;-77.518;2022-07-10T03:04:26;99803.32;;;25.83;46.13
65013;BME280;51715;39.432;-77.518;2022-07-10T03:06:54;99804.36;;;25.69;46.25
65013;BME280;51715;39.432;-77.518;2022-07-10T03:09:24;99797.30;;;25.34;46.70
65013;BME280;51715;39.432;-77.518;2022-07-10T03:11:52;99791.25;;;25.37;47.40
65013;BME280;51715;39.432;-77.518;2022-07-10T03:14:21;99788.93;;;25.54;47.04
65013;BME280;51715;39.432;-77.518;2022-07-10T03:16:50;99783.33;;;25.92;46.49
65013;BME280;51715;39.432;-77.518;2022-07-10T03:19:18;99791.75;;;25.64;46.42
65013;BME280;51715;39.432;-77.518;2022-07-10T03:21:46;99800.59;;;25.83;46.33
65013;BME280;51715;39.432;-77.518;2022-07-10T03:24:14;99802.63;;;25.93;45.93
65013;BME280;51715;39.432;-77.518;2022-07-10T03:26:41;99813.16;;;26.16;45.57
65013;BME280;51715;39.432;-77.518;2022-07-10T03:29:11;99817.92;;;25.96;45.66
65013;BME280;51715;39.432;-77.518;2022-07-10T03:31:39;99824.26;;;26.29;45.34
65013;BME280;51715;39.432;-77.518;2022-07-10T03:34:08;99823.56;;;25.99;45.50
65013;BME280;51715;39.432;-77.518;2022-07-10T03:36:36;99826.48;;;25.85;45.63
65013;BME280;51715;39.432;-77.518;2022-07-10T03:39:03;99827.16;;;26.01;45.23
65013;BME280;51715;39.432;-77.518;2022-07-10T03:41:33;99820.03;;;25.56;45.84
65013;BME280;51715;39.432;-77.518;2022-07-10T03:44:00;99822.37;;;25.69;45.66
65013;BME280;51715;39.432;-77.518;2022-07-10T03:46:29;99826.66;;;25.71;45.73
65013;BME280;51715;39.432;-77.518;2022-07-10T03:48:57;99822.86;;;25.57;45.78
65013;BME280;51715;39.432;-77.518;2022-07-10T03:51:25;99819.04;;;26.10;45.70
65013;BME280;51715;39.432;-77.518;2022-07-10T03:53:55;99815.85;;;25.97;45.59
65013;BME280;51715;39.432;-77.518;2022-07-10T03:56:23;99815.03;;;26.02;45.25
65013;BME280;51715;39.432;-77.518;2022-07-10T03:58:51;99812.99;;;26.02;45.20
65013;BME280;51715;39.432;-77.518;2022-07-10T04:03:55;99812.04;;;25.49;43.95
65013;BME280;51715;39.432;-77.518;2022-07-10T04:06:23;99810.13;;;26.06;44.20
65013;BME280;51715;39.432;-77.518;2022-07-10T04:08:54;99801.94;;;25.84;44.41
65013;BME280;51715;39.432;-77.518;2022-07-10T04:11:23;99791.02;;;25.86;44.46
65013;BME280;51715;39.432;-77.518;2022-07-10T04:13:52;99795.32;;;26.10;44.92
65013;BME280;51715;39.432;-77.518;2022-07-10T04:16:20;99790.56;;;25.86;45.19
65013;BME280;51715;39.432;-77.518;2022-07-10T04:18:48;99790.38;;;25.98;45.47
65013;BME280;51715;39.432;-77.518;2022-07-10T04:21:17;99785.14;;;25.64;45.63
65013;BME280;51715;39.432;-77.518;2022-07-10T04:23:44;99786.56;;;25.58;45.61
65013;BME280;51715;39.432;-77.518;2022-07-10T04:26:12;99788.77;;;25.57;45.45
65013;BME280;51715;39.432;-77.518;2022-07-10T04:28:41;99786.30;;;25.57;45.24
65013;BME280;51715;39.432;-77.518;2022-07-10T04:31:09;99775.35;;;25.60;45.11
65013;BME280;51715;39.432;-77.518;2022-07-10T04:33:38;99765.85;;;25.38;45.96
65013;BME280;51715;39.432;-77.518;2022-07-10T04:36:07;99762.60;;;25.26;45.99
65013;BME280;51715;39.432;-77.518;2022-07-10T04:38:36;99762.17;;;25.05;46.14
65013;BME280;51715;39.432;-77.518;2022-07-10T04:41:04;99762.27;;;24.80;46.37
65013;BME280;51715;39.432;-77.518;2022-07-10T04:43:33;99760.88;;;25.12;46.42
65013;BME280;51715;39.432;-77.518;2022-07-10T04:46:01;99762.69;;;25.20;46.38
65013;BME280;51715;39.432;-77.518;2022-07-10T04:48:29;99764.01;;;25.27;46.07
65013;BME280;51715;39.432;-77.518;2022-07-10T04:50:58;99759.10;;;25.06;45.85
65013;BME280;51715;39.432;-77.518;2022-07-10T04:53:27;99756.84;;;25.09;46.00
65013;BME280;51715;39.432;-77.518;2022-07-10T04:55:55;99758.54;;;25.26;45.94
65013;BME280;51715;39.432;-77.518;2022-07-10T04:58:24;99761.69;;;24.94;46.18
65013;BME280;51715;39.432;-77.518;2022-07-10T05:00:52;99762.30;;;24.79;46.24
65013;BME280;51715;39.432;-77.518;2022-07-10T05:03:20;99752.18;;;25.03;46.00
65013;BME280;51715;39.432;-77.518;2022-07-10T05:05:48;99753.33;;;25.16;45.84
65013;BME280;51715;39.432;-77.518;2022-07-10T05:08:15;99756.00;;;25.20;45.48
65013;BME280;51715;39.432;-77.518;2022-07-10T05:10:44;99760.12;;;25.10;45.55
65013;BME280;51715;39.432;-77.518;2022-07-10T05:13:13;99752.99;;;25.10;45.43
65013;BME280;51715;39.432;-77.518;2022-07-10T05:15:41;99752.68;;;24.97;45.71
65013;BME280;51715;39.432;-77.518;2022-07-10T05:18:09;99752.45;;;24.93;45.64
65013;BME280;51715;39.432;-77.518;2022-07-10T05:20:38;99754.44;;;24.93;45.70
65013;BME280;51715;39.432;-77.518;2022-07-10T05:23:07;99755.31;;;24.90;45.79
65013;BME280;51715;39.432;-77.518;2022-07-10T05:25:36;99762.02;;;25.08;45.94
65013;BME280;51715;39.432;-77.518;2022-07-10T05:28:04;99761.83;;;24.92;45.92
65013;BME280;51715;39.432;-77.518;2022-07-10T05:30:32;99757.15;;;25.17;45.95
65013;BME280;51715;39.432;-77.518;2022-07-10T05:33:01;99755.60;;;25.00;45.57
65013;BME280;51715;39.432;-77.518;2022-07-10T05:35:29;99767.71;;;25.02;45.61
65013;BME280;51715;39.432;-77.518;2022-07-10T05:37:57;99775.67;;;25.08;45.53
65013;BME280;51715;39.432;-77.518;2022-07-10T05:40:26;99771.42;;;25.06;45.37
65013;BME280;51715;39.432;-77.518;2022-07-10T05:42:53;99758.56;;;24.76;45.35
65013;BME280;51715;39.432;-77.518;2022-07-10T05:45:21;99754.62;;;24.96;45.30
65013;BME280;51715;39.432;-77.518;2022-07-10T05:47:49;99757.52;;;24.74;45.42
65013;BME280;51715;39.432;-77.518;2022-07-10T05:50:18;99759.19;;;24.84;45.45
65013;BME280;51715;39.432;-77.518;2022-07-10T05:52:46;99769.95;;;24.56;46.09
65013;BME280;51715;39.432;-77.518;2022-07-10T05:55:14;99783.23;;;24.38;46.45
65013;BME280;51715;39.432;-77.518;2022-07-10T05:57:42;99791.21;;;24.75;46.32
65013;BME280;51715;39.432;-77.518;2022-07-10T06:00:12;99784.49;;;24.81;46.17
65013;BME280;51715;39.432;-77.518;2022-07-10T06:02:39;99783.25;;;24.64;45.96
65013;BME280;51715;39.432;-77.518;2022-07-10T06:05:08;99786.70;;;24.74;45.59
65013;BME280;51715;39.432;-77.518;2022-07-10T06:07:38;99784.64;;;24.71;45.47
65013;BME280;51715;39.432;-77.518;2022-07-10T06:10:07;99775.19;;;24.65;45.49
65013;BME280;51715;39.432;-77.518;2022-07-10T06:12:36;99773.44;;;24.53;45.83
65013;BME280;51715;39.432;-77.518;2022-07-10T06:15:05;99768.85;;;24.70;45.59
65013;BME280;51715;39.432;-77.518;2022-07-10T06:17:34;99767.21;;;24.92;45.32
65013;BME280;51715;39.432;-77.518;2022-07-10T06:20:04;99769.91;;;24.78;45.31
65013;BME280;51715;39.432;-77.518;2022-07-10T06:22:32;99769.37;;;24.72;45.51
65013;BME280;51715;39.432;-77.518;2022-07-10T06:25:02;99767.91;;;24.73;45.58
65013;BME280;51715;39.432;-77.518;2022-07-10T06:27:31;99767.97;;;24.49;45.51
65013;BME280;51715;39.432;-77.518;2022-07-10T06:30:01;99769.23;;;24.53;45.46
65013;BME280;51715;39.432;-77.518;2022-07-10T06:32:30;99774.09;;;24.50;45.53
65013;BME280;51715;39.432;-77.518;2022-07-10T06:34:59;99777.17;;;24.55;45.53
65013;BME280;51715;39.432;-77.518;2022-07-10T06:37:27;99775.57;;;24.57;45.49
65013;BME280;51715;39.432;-77.518;2022-07-10T06:39:55;99771.43;;;24.55;45.56
65013;BME280;51715;39.432;-77.518;2022-07-10T06:42:23;99771.42;;;24.60;45.39
65013;BME280;51715;39.432;-77.518;2022-07-10T06:44:52;99770.61;;;24.81;45.28
65013;BME280;51715;39.432;-77.518;2022-07-10T06:47:20;99770.65;;;24.39;45.36
65013;BME280;51715;39.432;-77.518;2022-07-10T06:49:49;99765.00;;;24.10;46.52
65013;BME280;51715;39.432;-77.518;2022-07-10T06:52:17;99765.04;;;24.21;45.99
65013;BME280;51715;39.432;-77.518;2022-07-10T06:54:45;99760.89;;;24.35;45.84
65013;BME280;51715;39.432;-77.518;2022-07-10T06:57:13;99758.07;;;24.10;46.41
65013;BME280;51715;39.432;-77.518;2022-07-10T06:59:43;99751.65;;;24.43;46.26
65013;BME280;51715;39.432;-77.518;2022-07-10T07:02:11;99739.33;;;24.43;46.41
65013;BME280;51715;39.432;-77.518;2022-07-10T07:04:40;99733.00;;;24.55;46.43
65013;BME280;51715;39.432;-77.518;2022-07-10T07:07:08;99736.54;;;24.39;46.16
65013;BME280;51715;39.432;-77.518;2022-07-10T07:09:37;99744.61;;;24.44;46.04
65013;BME280;51715;39.432;-77.518;2022-07-10T07:12:06;99744.38;;;24.26;45.65
65013;BME280;51715;39.432;-77.518;2022-07-10T07:14:34;99745.76;;;24.36;45.26
65013;BME280;51715;39.432;-77.518;2022-07-10T07:17:04;99747.42;;;24.88;45.15
65013;BME280;51715;39.432;-77.518;2022-07-10T07:19:33;99750.45;;;24.76;45.17
65013;BME280;51715;39.432;-77.518;2022-07-10T07:22:02;99746.43;;;24.39;45.28
65013;BME280;51715;39.432;-77.518;2022-07-10T07:24:31;99747.30;;;24.64;45.29
65013;BME280;51715;39.432;-77.518;2022-07-10T07:26:59;99748.73;;;24.59;45.19
65013;BME280;51715;39.432;-77.518;2022-07-10T07:29:27;99746.80;;;24.27;45.04
65013;BME280;51715;39.432;-77.518;2022-07-10T07:31:55;99744.54;;;24.25;45.09
65013;BME280;51715;39.432;-77.518;2022-07-10T07:34:23;99741.29;;;24.02;44.91
65013;BME280;51715;39.432;-77.518;2022-07-10T07:36:52;99737.38;;;24.24;44.66
65013;BME280;51715;39.432;-77.518;2022-07-10T07:39:21;99736.48;;;23.91;45.37
65013;BME280;51715;39.432;-77.518;2022-07-10T07:41:50;99741.08;;;23.92;45.59
65013;BME280;51715;39.432;-77.518;2022-07-10T07:44:18;99741.37;;;23.99;45.60
65013;BME280;51715;39.432;-77.518;2022-07-10T07:46:46;99740.79;;;23.81;45.61
65013;BME280;51715;39.432;-77.518;2022-07-10T07:49:14;99737.44;;;23.66;45.78
65013;BME280;51715;39.432;-77.518;2022-07-10T07:51:44;99741.34;;;23.66;46.05
65013;BME280;51715;39.432;-77.518;2022-07-10T07:54:11;99740.24;;;23.77;45.84
65013;BME280;51715;39.432;-77.518;2022-07-10T07:56:40;99736.03;;;23.84;45.56
65013;BME280;51715;39.432;-77.518;2022-07-10T07:59:09;99733.59;;;23.88;45.45
65013;BME280;51715;39.432;-77.518;2022-07-10T08:01:37;99729.82;;;23.63;45.21
65013;BME280;51715;39.432;-77.518;2022-07-10T08:04:05;99728.29;;;23.57;44.98
65013;BME280;51715;39.432;-77.518;2022-07-10T08:06:33;99729.74;;;23.76;45.15
65013;BME280;51715;39.432;-77.518;2022-07-10T08:09:02;99727.07;;;23.76;45.38
65013;BME280;51715;39.432;-77.518;2022-07-10T08:11:30;99730.79;;;23.75;45.28
65013;BME280;51715;39.432;-77.518;2022-07-10T08:13:58;99737.00;;;23.86;45.03
65013;BME280;51715;39.432;-77.518;2022-07-10T08:16:26;99738.58;;;23.88;44.87
65013;BME280;51715;39.432;-77.518;2022-07-10T08:18:55;99741.97;;;23.87;44.79
65013;BME280;51715;39.432;-77.518;2022-07-10T08:21:24;99743.68;;;24.03;44.70
65013;BME280;51715;39.432;-77.518;2022-07-10T08:23:51;99740.47;;;23.75;44.75
65013;BME280;51715;39.432;-77.518;2022-07-10T08:26:20;99739.15;;;23.74;44.64
65013;BME280;51715;39.432;-77.518;2022-07-10T08:28:48;99742.42;;;23.71;44.62
65013;BME280;51715;39.432;-77.518;2022-07-10T08:31:17;99746.00;;;23.67;44.57
65013;BME280;51715;39.432;-77.518;2022-07-10T08:33:45;99740.60;;;23.60;44.43
65013;BME280;51715;39.432;-77.518;2022-07-10T08:36:12;99736.97;;;23.44;44.42
65013;BME280;51715;39.432;-77.518;2022-07-10T08:38:40;99743.58;;;23.40;44.73
65013;BME280;51715;39.432;-77.518;2022-07-10T08:41:09;99751.08;;;23.58;44.72
65013;BME280;51715;39.432;-77.518;2022-07-10T08:43:39;99754.94;;;23.34;44.79
65013;BME280;51715;39.432;-77.518;2022-07-10T08:46:07;99753.78;;;23.25;44.86
65013;BME280;51715;39.432;-77.518;2022-07-10T08:48:37;99755.47;;;23.42;45.15
65013;BME280;51715;39.432;-77.518;2022-07-10T08:51:07;99754.64;;;23.58;45.47
65013;BME280;51715;39.432;-77.518;2022-07-10T08:53:39;99755.32;;;23.18;45.73
65013;BME280;51715;39.432;-77.518;2022-07-10T08:56:08;99755.41;;;23.37;45.66
65013;BME280;51715;39.432;-77.518;2022-07-10T08:58:38;99757.15;;;23.22;46.10
65013;BME280;51715;39.432;-77.518;2022-07-10T09:01:06;99757.10;;;23.33;46.18
65013;BME280;51715;39.432;-77.518;2022-07-10T09:03:35;99755.48;;;23.23;46.16
65013;BME280;51715;39.432;-77.518;2022-07-10T09:06:05;99752.56;;;23.52;46.04
65013;BME280;51715;39.432;-77.518;2022-07-10T09:08:34;99749.10;;;23.33;45.99
65013;BME280;51715;39.432;-77.518;2022-07-10T09:11:18;99742.08;;;23.42;45.68
65013;BME280;51715;39.432;-77.518;2022-07-10T09:13:50;99739.75;;;23.49;45.58
65013;BME280;51715;39.432;-77.518;2022-07-10T09:16:23;99745.98;;;23.51;45.37
65013;BME280;51715;39.432;-77.518;2022-07-10T09:18:51;99750.41;;;23.64;45.30
65013;BME280;51715;39.432;-77.518;2022-07-10T09:21:21;99748.36;;;23.65;45.25
65013;BME280;51715;39.432;-77.518;2022-07-10T09:23:49;99748.22;;;23.67;45.01
65013;BME280;51715;39.432;-77.518;2022-07-10T09:26:19;99756.80;;;23.70;45.17
65013;BME280;51715;39.432;-77.518;2022-07-10T09:28:49;99756.01;;;23.64;45.29
65013;BME280;51715;39.432;-77.518;2022-07-10T09:31:21;99752.43;;;23.81;45.28
65013;BME280;51715;39.432;-77.518;2022-07-10T09:33:49;99759.42;;;23.39;45.62
65013;BME280;51715;39.432;-77.518;2022-07-10T09:36:17;99762.60;;;23.37;45.73
65013;BME280;51715;39.432;-77.518;2022-07-10T09:38:53;99760.25;;;23.41;45.64
65013;BME280;51715;39.432;-77.518;2022-07-10T09:41:24;99761.59;;;23.10;46.34
65013;BME280;51715;39.432;-77.518;2022-07-10T09:43:54;99759.03;;;23.03;46.44
65013;BME280;51715;39.432;-77.518;2022-07-10T09:46:25;99760.27;;;22.44;48.21
65013;BME280;51715;39.432;-77.518;2022-07-10T09:49:10;99761.74;;;22.87;47.33
65013;BME280;51715;39.432;-77.518;2022-07-10T09:51:40;99762.98;;;23.25;47.00
65013;BME280;51715;39.432;-77.518;2022-07-10T09:54:10;99755.56;;;23.09;47.04
65013;BME280;51715;39.432;-77.518;2022-07-10T09:56:41;99756.06;;;22.99;47.54
65013;BME280;51715;39.432;-77.518;2022-07-10T09:59:12;99757.78;;;23.14;47.05
65013;BME280;51715;39.432;-77.518;2022-07-10T10:01:44;99763.91;;;23.27;46.74
65013;BME280;51715;39.432;-77.518;2022-07-10T10:04:14;99766.95;;;23.12;46.65
65013;BME280;51715;39.432;-77.518;2022-07-10T10:06:43;99767.68;;;23.31;46.18
65013;BME280;51715;39.432;-77.518;2022-07-10T10:09:18;99768.61;;;23.34;45.99
65013;BME280;51715;39.432;-77.518;2022-07-10T10:11:51;99773.09;;;23.58;45.96
65013;BME280;51715;39.432;-77.518;2022-07-10T10:14:23;99771.32;;;23.26;46.59
65013;BME280;51715;39.432;-77.518;2022-07-10T10:16:53;99777.45;;;23.48;46.29
65013;BME280;51715;39.432;-77.518;2022-07-10T10:19:23;99778.35;;;23.35;46.15
65013;BME280;51715;39.432;-77.518;2022-07-10T10:21:53;99782.44;;;23.56;45.81
65013;BME280;51715;39.432;-77.518;2022-07-10T10:24:22;99780.25;;;23.39;46.10
65013;BME280;51715;39.432;-77.518;2022-07-10T10:26:51;99782.28;;;23.36;46.37
65013;BME280;51715;39.432;-77.518;2022-07-10T10:29:20;99780.69;;;23.05;46.09
65013;BME280;51715;39.432;-77.518;2022-07-10T10:31:49;99792.51;;;22.73;47.02
65013;BME280;51715;39.432;-77.518;2022-07-10T10:34:39;99791.21;;;22.90;46.42
65013;BME280;51715;39.432;-77.518;2022-07-10T10:37:14;99788.37;;;23.09;46.43
65013;BME280;51715;39.432;-77.518;2022-07-10T10:39:58;99790.10;;;23.05;46.67
65013;BME280;51715;39.432;-77.518;2022-07-10T10:42:35;99791.21;;;23.42;46.44
65013;BME280;51715;39.432;-77.518;2022-07-10T10:45:37;99791.72;;;23.09;46.26
65013;BME280;51715;39.432;-77.518;2022-07-10T10:48:06;99796.99;;;23.45;46.12
65013;BME280;51715;39.432;-77.518;2022-07-10T10:50:40;99801.59;;;23.46;46.05
65013;BME280;51715;39.432;-77.518;2022-07-10T10:53:18;99804.24;;;23.54;46.36
65013;BME280;51715;39.432;-77.518;2022-07-10T10:56:45;99809.90;;;23.00;46.99
65013;BME280;51715;39.432;-77.518;2022-07-10T10:59:46;99815.78;;;22.92;47.25
65013;BME280;51715;39.432;-77.518;2022-07-10T11:02:24;99820.22;;;22.69;47.50
65013;BME280;51715;39.432;-77.518;2022-07-10T11:05:40;99824.56;;;22.85;47.05
65013;BME280;51715;39.432;-77.518;2022-07-10T11:08:08;99830.40;;;23.37;46.53
65013;BME280;51715;39.432;-77.518;2022-07-10T11:10:37;99832.43;;;23.59;46.31
65013;BME280;51715;39.432;-77.518;2022-07-10T11:13:06;99832.96;;;23.61;46.34
65013;BME280;51715;39.432;-77.518;2022-07-10T11:15:36;99836.78;;;23.32;46.20
65013;BME280;51715;39.432;-77.518;2022-07-10T11:18:07;99838.99;;;23.64;46.13
65013;BME280;51715;39.432;-77.518;2022-07-10T11:20:37;99837.39;;;23.78;46.06
65013;BME280;51715;39.432;-77.518;2022-07-10T11:23:21;99832.67;;;23.93;45.86
65013;BME280;51715;39.432;-77.518;2022-07-10T11:25:57;99822.87;;;23.89;45.80
65013;BME280;51715;39.432;-77.518;2022-07-10T11:28:41;99823.95;;;24.23;45.80
65013;BME280;51715;39.432;-77.518;2022-07-10T11:31:10;99819.80;;;24.04;45.99
65013;BME280;51715;39.432;-77.518;2022-07-10T11:33:40;99818.55;;;24.18;45.63
65013;BME280;51715;39.432;-77.518;2022-07-10T11:36:14;99815.31;;;24.46;45.81
65013;BME280;51715;39.432;-77.518;2022-07-10T11:38:44;99822.19;;;24.22;46.15
65013;BME280;51715;39.432;-77.518;2022-07-10T11:41:17;99826.09;;;24.20;45.75
65013;BME280;51715;39.432;-77.518;2022-07-10T11:43:48;99827.16;;;24.15;45.76
65013;BME280;51715;39.432;-77.518;2022-07-10T11:46:17;99831.69;;;23.73;42.53
65013;BME280;51715;39.432;-77.518;2022-07-10T11:48:46;99835.97;;;22.82;41.37
65013;BME280;51715;39.432;-77.518;2022-07-10T11:51:19;99835.32;;;23.44;42.24
65013;BME280;51715;39.432;-77.518;2022-07-10T11:53:58;99828.91;;;23.97;41.54
65013;BME280;51715;39.432;-77.518;2022-07-10T11:56:28;99818.71;;;24.16;41.51
65013;BME280;51715;39.432;-77.518;2022-07-10T11:58:59;99820.00;;;23.41;42.11
65013;BME280;51715;39.432;-77.518;2022-07-10T12:01:29;99826.56;;;23.54;41.66
65013;BME280;51715;39.432;-77.518;2022-07-10T12:04:00;99828.80;;;23.96;41.01
65013;BME280;51715;39.432;-77.518;2022-07-10T12:06:29;99830.42;;;23.97;41.19
65013;BME280;51715;39.432;-77.518;2022-07-10T12:09:03;99834.76;;;23.71;40.05
65013;BME280;51715;39.432;-77.518;2022-07-10T12:11:33;99830.11;;;24.04;40.74
65013;BME280;51715;39.432;-77.518;2022-07-10T12:14:11;99827.25;;;23.99;40.02
65013;BME280;51715;39.432;-77.518;2022-07-10T12:16:41;99829.31;;;24.39;39.62
65013;BME280;51715;39.432;-77.518;2022-07-10T12:19:12;99834.55;;;24.33;40.08
65013;BME280;51715;39.432;-77.518;2022-07-10T12:21:43;99837.50;;;24.44;40.02
65013;BME280;51715;39.432;-77.518;2022-07-10T12:24:11;99837.48;;;24.68;39.19
65013;BME280;51715;39.432;-77.518;2022-07-10T12:26:41;99841.31;;;24.47;38.57
65013;BME280;51715;39.432;-77.518;2022-07-10T12:29:18;99845.28;;;24.40;37.12
65013;BME280;51715;39.432;-77.518;2022-07-10T12:31:48;99849.84;;;24.28;36.86
65013;BME280;51715;39.432;-77.518;2022-07-10T12:34:17;99850.70;;;24.73;36.87
65013;BME280;51715;39.432;-77.518;2022-07-10T12:36:47;99853.05;;;24.78;38.07
65013;BME280;51715;39.432;-77.518;2022-07-10T12:39:18;99855.29;;;24.07;38.07
65013;BME280;51715;39.432;-77.518;2022-07-10T12:41:56;99859.98;;;23.14;37.70
65013;BME280;51715;39.432;-77.518;2022-07-10T12:44:35;99858.70;;;23.78;35.65
65013;BME280;51715;39.432;-77.518;2022-07-10T12:47:05;99858.92;;;24.66;36.80
65013;BME280;51715;39.432;-77.518;2022-07-10T12:49:49;99858.60;;;24.93;37.76
65013;BME280;51715;39.432;-77.518;2022-07-10T12:52:26;99858.91;;;25.03;37.19
65013;BME280;51715;39.432;-77.518;2022-07-10T12:55:12;99859.05;;;25.09;38.38
65013;BME280;51715;39.432;-77.518;2022-07-10T12:57:49;99860.49;;;25.53;37.36